sensor_id;sensor_type;location;lat;lon;timestamp;P1;durP1;ratioP1;P2;durP2;ratioP2
44578;SDS011;37422;51.402;0.016;2023-01-15T00:01:18;5.55;;;1.63;;
44578;SDS011;37422;51.402;0.016;2023-01-15T00:03:49;10.50;;;2.15;;
44578;SDS011;37422;51.402;0.016;2023-01-15T00:06:17;5.97;;;1.30;;
44578;SDS011;37422;51.402;0.016;2023-01-15T00:08:45;4.65;;;1.00;;
44578;SDS011;37422;51.402;0.016;2023-01-15T00:11:13;6.50;;;2.45;;
44578;SDS011;37422;51.402;0.016;2023-01-15T00:13:42;7.40;;;1.33;;
44578;SDS011;37422;51.402;0.016;2023-01-15T00:16:11;5.97;;;1.08;;
44578;SDS011;37422;51.402;0.016;2023-01-15T00:18:47;9.60;;;2.13;;
44578;SDS011;37422;51.402;0.016;2023-01-15T00:21:17;5.07;;;2.15;;
44578;SDS011;37422;51.402;0.016;2023-01-15T00:23:46;4.50;;;1.70;;
44578;SDS011;37422;51.402;0.016;2023-01-15T00:26:33;6.38;;;1.80;;
44578;SDS011;37422;51.402;0.016;2023-01-15T00:29:19;3.00;;;1.27;;
44578;SDS011;37422;51.402;0.016;2023-01-15T00:31:55;10.35;;;1.58;;
44578;SDS011;37422;51.402;0.016;2023-01-15T00:34:27;6.40;;;1.67;;
44578;SDS011;37422;51.402;0.016;2023-01-15T00:36:55;7.32;;;1.75;;
44578;SDS011;37422;51.402;0.016;2023-01-15T00:39:23;7.80;;;1.67;;
44578;SDS011;37422;51.402;0.016;2023-01-15T00:41:52;4.63;;;1.20;;
44578;SDS011;37422;51.402;0.016;2023-01-15T00:44:21;17.70;;;2.13;;
44578;SDS011;37422;51.402;0.016;2023-01-15T00:46:50;9.95;;;2.03;;
44578;SDS011;37422;51.402;0.016;2023-01-15T00:49:20;10.93;;;1.60;;
44578;SDS011;37422;51.402;0.016;2023-01-15T00:51:48;6.07;;;1.58;;
44578;SDS011;37422;51.402;0.016;2023-01-15T00:54:17;5.53;;;1.30;;
44578;SDS011;37422;51.402;0.016;2023-01-15T00:56:44;11.50;;;1.52;;
44578;SDS011;37422;51.402;0.016;2023-01-15T00:59:12;6.32;;;1.55;;
44578;SDS011;37422;51.402;0.016;2023-01-15T01:01:40;8.75;;;2.90;;
44578;SDS011;37422;51.402;0.016;2023-01-15T01:04:08;6.13;;;1.38;;
44578;SDS011;37422;51.402;0.016;2023-01-15T01:06:35;14.25;;;1.48;;
44578;SDS011;37422;51.402;0.016;2023-01-15T01:09:03;6.43;;;2.63;;
44578;SDS011;37422;51.402;0.016;2023-01-15T01:11:31;9.02;;;1.63;;
44578;SDS011;37422;51.402;0.016;2023-01-15T01:14:00;11.13;;;3.28;;
44578;SDS011;37422;51.402;0.016;2023-01-15T01:16:30;4.80;;;1.85;;
44578;SDS011;37422;51.402;0.016;2023-01-15T01:19:08;8.65;;;1.60;;
44578;SDS011;37422;51.402;0.016;2023-01-15T01:21:39;8.85;;;1.23;;
44578;SDS011;37422;51.402;0.016;2023-01-15T01:24:09;25.02;;;2.30;;
44578;SDS011;37422;51.402;0.016;2023-01-15T01:29:10;9.75;;;1.77;;
44578;SDS011;37422;51.402;0.016;2023-01-15T01:31:39;6.55;;;1.60;;
44578;SDS011;37422;51.402;0.016;2023-01-15T01:34:07;5.30;;;1.23;;
44578;SDS011;37422;51.402;0.016;2023-01-15T01:36:36;9.68;;;1.75;;
44578;SDS011;37422;51.402;0.016;2023-01-15T01:39:07;9.07;;;1.83;;
44578;SDS011;37422;51.402;0.016;2023-01-15T01:41:41;13.23;;;2.72;;
44578;SDS011;37422;51.402;0.016;2023-01-15T01:47:00;5.97;;;1.38;;
44578;SDS011;37422;51.402;0.016;2023-01-15T01:49:50;11.13;;;3.45;;
44578;SDS011;37422;51.402;0.016;2023-01-15T01:52:30;15.82;;;2.55;;
44578;SDS011;37422;51.402;0.016;2023-01-15T01:55:02;6.15;;;1.60;;
44578;SDS011;37422;51.402;0.016;2023-01-15T01:57:31;9.77;;;1.92;;
44578;SDS011;37422;51.402;0.016;2023-01-15T02:00:00;7.00;;;1.90;;
44578;SDS011;37422;51.402;0.016;2023-01-15T02:02:39;13.25;;;3.33;;
44578;SDS011;37422;51.402;0.016;2023-01-15T02:05:14;5.82;;;1.33;;
44578;SDS011;37422;51.402;0.016;2023-01-15T02:07:47;6.30;;;1.83;;
44578;SDS011;37422;51.402;0.016;2023-01-15T02:10:15;13.07;;;2.13;;
44578;SDS011;37422;51.402;0.016;2023-01-15T02:19:15;6.25;;;1.70;;
44578;SDS011;37422;51.402;0.016;2023-01-15T02:25:27;13.45;;;2.38;;
44578;SDS011;37422;51.402;0.016;2023-01-15T02:27:40;9.75;;;1.77;;
44578;SDS011;37422;51.402;0.016;2023-01-15T02:30:22;7.03;;;1.60;;
44578;SDS011;37422;51.402;0.016;2023-01-15T02:32:58;8.02;;;1.85;;
44578;SDS011;37422;51.402;0.016;2023-01-15T02:35:44;6.25;;;1.58;;
44578;SDS011;37422;51.402;0.016;2023-01-15T02:38:41;13.80;;;2.38;;
44578;SDS011;37422;51.402;0.016;2023-01-15T02:41:14;5.78;;;1.20;;
44578;SDS011;37422;51.402;0.016;2023-01-15T02:43:50;8.10;;;1.80;;
44578;SDS011;37422;51.402;0.016;2023-01-15T02:46:26;8.52;;;1.92;;
44578;SDS011;37422;51.402;0.016;2023-01-15T02:49:00;3.63;;;1.35;;
44578;SDS011;37422;51.402;0.016;2023-01-15T02:51:40;10.32;;;1.80;;
44578;SDS011;37422;51.402;0.016;2023-01-15T02:54:13;9.63;;;1.70;;
44578;SDS011;37422;51.402;0.016;2023-01-15T02:56:43;12.48;;;2.88;;
44578;SDS011;37422;51.402;0.016;2023-01-15T02:59:14;12.50;;;2.13;;
44578;SDS011;37422;51.402;0.016;2023-01-15T03:01:52;7.60;;;1.95;;
44578;SDS011;37422;51.402;0.016;2023-01-15T03:07:04;8.90;;;2.47;;
44578;SDS011;37422;51.402;0.016;2023-01-15T03:09:41;9.77;;;2.38;;
44578;SDS011;37422;51.402;0.016;2023-01-15T03:12:15;11.55;;;1.63;;
44578;SDS011;37422;51.402;0.016;2023-01-15T03:17:23;4.45;;;1.52;;
44578;SDS011;37422;51.402;0.016;2023-01-15T03:20:08;9.98;;;1.90;;
44578;SDS011;37422;51.402;0.016;2023-01-15T03:22:43;16.80;;;2.80;;
44578;SDS011;37422;51.402;0.016;2023-01-15T03:25:17;9.88;;;1.92;;
44578;SDS011;37422;51.402;0.016;2023-01-15T03:27:53;9.77;;;1.90;;
44578;SDS011;37422;51.402;0.016;2023-01-15T03:30:27;5.43;;;1.42;;
44578;SDS011;37422;51.402;0.016;2023-01-15T03:32:55;10.07;;;1.35;;
44578;SDS011;37422;51.402;0.016;2023-01-15T03:38:22;5.60;;;1.33;;
44578;SDS011;37422;51.402;0.016;2023-01-15T03:58:23;15.48;;;2.33;;
44578;SDS011;37422;51.402;0.016;2023-01-15T04:00:57;8.02;;;1.73;;
44578;SDS011;37422;51.402;0.016;2023-01-15T04:03:28;10.07;;;2.38;;
44578;SDS011;37422;51.402;0.016;2023-01-15T04:05:59;6.22;;;1.65;;
44578;SDS011;37422;51.402;0.016;2023-01-15T04:08:30;10.65;;;3.75;;
44578;SDS011;37422;51.402;0.016;2023-01-15T04:11:01;6.22;;;1.20;;
44578;SDS011;37422;51.402;0.016;2023-01-15T04:13:32;5.15;;;1.42;;
44578;SDS011;37422;51.402;0.016;2023-01-15T04:16:01;3.75;;;1.48;;
44578;SDS011;37422;51.402;0.016;2023-01-15T04:18:29;8.65;;;3.15;;
44578;SDS011;37422;51.402;0.016;2023-01-15T04:20:57;7.40;;;1.67;;
44578;SDS011;37422;51.402;0.016;2023-01-15T04:23:26;12.05;;;1.55;;
44578;SDS011;37422;51.402;0.016;2023-01-15T04:25:54;9.55;;;1.80;;
44578;SDS011;37422;51.402;0.016;2023-01-15T04:28:22;9.43;;;1.70;;
44578;SDS011;37422;51.402;0.016;2023-01-15T04:30:50;7.43;;;2.70;;
44578;SDS011;37422;51.402;0.016;2023-01-15T04:33:18;14.88;;;3.30;;
44578;SDS011;37422;51.402;0.016;2023-01-15T04:35:45;18.58;;;2.67;;
44578;SDS011;37422;51.402;0.016;2023-01-15T04:38:13;9.57;;;2.33;;
44578;SDS011;37422;51.402;0.016;2023-01-15T04:40:41;2.95;;;1.30;;
44578;SDS011;37422;51.402;0.016;2023-01-15T04:43:27;8.77;;;1.60;;
44578;SDS011;37422;51.402;0.016;2023-01-15T04:46:14;2.95;;;1.20;;
44578;SDS011;37422;51.402;0.016;2023-01-15T04:48:41;6.72;;;1.52;;
44578;SDS011;37422;51.402;0.016;2023-01-15T04:51:09;12.32;;;1.65;;
44578;SDS011;37422;51.402;0.016;2023-01-15T04:53:37;5.32;;;1.25;;
44578;SDS011;37422;51.402;0.016;2023-01-15T04:56:04;7.93;;;1.83;;
44578;SDS011;37422;51.402;0.016;2023-01-15T04:58:33;6.55;;;1.45;;
44578;SDS011;37422;51.402;0.016;2023-01-15T05:01:01;11.30;;;1.95;;
44578;SDS011;37422;51.402;0.016;2023-01-15T05:03:29;5.43;;;1.02;;
44578;SDS011;37422;51.402;0.016;2023-01-15T05:06:01;13.57;;;3.03;;
44578;SDS011;37422;51.402;0.016;2023-01-15T05:08:29;7.50;;;1.20;;
44578;SDS011;37422;51.402;0.016;2023-01-15T05:11:04;15.13;;;2.75;;
44578;SDS011;37422;51.402;0.016;2023-01-15T05:13:33;8.02;;;1.55;;
44578;SDS011;37422;51.402;0.016;2023-01-15T05:18:44;11.75;;;1.80;;
44578;SDS011;37422;51.402;0.016;2023-01-15T05:21:16;10.93;;;2.00;;
44578;SDS011;37422;51.402;0.016;2023-01-15T05:23:44;3.55;;;1.45;;
44578;SDS011;37422;51.402;0.016;2023-01-15T05:26:12;3.63;;;1.10;;
44578;SDS011;37422;51.402;0.016;2023-01-15T05:28:40;10.40;;;1.48;;
44578;SDS011;37422;51.402;0.016;2023-01-15T05:31:09;4.65;;;1.05;;
44578;SDS011;37422;51.402;0.016;2023-01-15T05:33:39;5.80;;;1.75;;
44578;SDS011;37422;51.402;0.016;2023-01-15T05:36:08;4.93;;;1.50;;
44578;SDS011;37422;51.402;0.016;2023-01-15T05:41:06;12.30;;;3.53;;
44578;SDS011;37422;51.402;0.016;2023-01-15T05:43:55;6.03;;;1.30;;
44578;SDS011;37422;51.402;0.016;2023-01-15T05:46:25;11.63;;;1.90;;
44578;SDS011;37422;51.402;0.016;2023-01-15T05:48:53;5.43;;;1.30;;
44578;SDS011;37422;51.402;0.016;2023-01-15T05:51:25;6.57;;;1.10;;
44578;SDS011;37422;51.402;0.016;2023-01-15T05:53:52;4.68;;;1.33;;
44578;SDS011;37422;51.402;0.016;2023-01-15T05:56:20;5.13;;;1.67;;
44578;SDS011;37422;51.402;0.016;2023-01-15T05:58:48;6.10;;;1.00;;
44578;SDS011;37422;51.402;0.016;2023-01-15T06:01:15;6.28;;;1.38;;
44578;SDS011;37422;51.402;0.016;2023-01-15T06:03:43;7.07;;;1.27;;
44578;SDS011;37422;51.402;0.016;2023-01-15T06:06:13;8.27;;;1.27;;
44578;SDS011;37422;51.402;0.016;2023-01-15T06:08:43;5.68;;;1.38;;
44578;SDS011;37422;51.402;0.016;2023-01-15T06:11:11;5.93;;;1.33;;
44578;SDS011;37422;51.402;0.016;2023-01-15T06:13:39;6.70;;;1.27;;
44578;SDS011;37422;51.402;0.016;2023-01-15T06:16:07;4.78;;;2.15;;
44578;SDS011;37422;51.402;0.016;2023-01-15T06:18:37;6.95;;;2.15;;
44578;SDS011;37422;51.402;0.016;2023-01-15T06:21:07;17.00;;;2.75;;
44578;SDS011;37422;51.402;0.016;2023-01-15T06:23:36;5.78;;;1.13;;
44578;SDS011;37422;51.402;0.016;2023-01-15T06:26:05;5.90;;;1.10;;
44578;SDS011;37422;51.402;0.016;2023-01-15T06:28:34;5.43;;;1.70;;
44578;SDS011;37422;51.402;0.016;2023-01-15T06:31:05;4.10;;;1.92;;
44578;SDS011;37422;51.402;0.016;2023-01-15T06:33:34;7.13;;;1.45;;
44578;SDS011;37422;51.402;0.016;2023-01-15T06:36:04;5.20;;;1.63;;
44578;SDS011;37422;51.402;0.016;2023-01-15T06:38:32;4.87;;;1.37;;
44578;SDS011;37422;51.402;0.016;2023-01-15T06:41:01;8.35;;;2.42;;
44578;SDS011;37422;51.402;0.016;2023-01-15T06:43:30;9.45;;;2.40;;
44578;SDS011;37422;51.402;0.016;2023-01-15T06:46:16;6.88;;;1.42;;
44578;SDS011;37422;51.402;0.016;2023-01-15T06:49:02;7.70;;;0.98;;
44578;SDS011;37422;51.402;0.016;2023-01-15T06:51:30;12.20;;;2.13;;
44578;SDS011;37422;51.402;0.016;2023-01-15T06:53:58;6.15;;;1.15;;
44578;SDS011;37422;51.402;0.016;2023-01-15T06:56:25;6.80;;;1.90;;
44578;SDS011;37422;51.402;0.016;2023-01-15T06:58:53;4.63;;;1.10;;
44578;SDS011;37422;51.402;0.016;2023-01-15T07:01:22;4.60;;;1.17;;
44578;SDS011;37422;51.402;0.016;2023-01-15T07:03:50;5.22;;;1.10;;
44578;SDS011;37422;51.402;0.016;2023-01-15T07:06:18;4.65;;;1.40;;
44578;SDS011;37422;51.402;0.016;2023-01-15T07:08:45;5.80;;;1.10;;
44578;SDS011;37422;51.402;0.016;2023-01-15T07:11:13;5.05;;;1.80;;
44578;SDS011;37422;51.402;0.016;2023-01-15T07:13:41;3.22;;;0.80;;
44578;SDS011;37422;51.402;0.016;2023-01-15T07:16:09;7.30;;;1.73;;
44578;SDS011;37422;51.402;0.016;2023-01-15T07:18:54;6.88;;;1.45;;
44578;SDS011;37422;51.402;0.016;2023-01-15T07:21:22;6.10;;;1.17;;
44578;SDS011;37422;51.402;0.016;2023-01-15T07:23:50;2.97;;;1.50;;
44578;SDS011;37422;51.402;0.016;2023-01-15T07:26:18;7.35;;;1.92;;
44578;SDS011;37422;51.402;0.016;2023-01-15T07:28:45;4.57;;;1.15;;
44578;SDS011;37422;51.402;0.016;2023-01-15T07:31:13;6.15;;;1.55;;
44578;SDS011;37422;51.402;0.016;2023-01-15T07:33:41;8.30;;;1.35;;
44578;SDS011;37422;51.402;0.016;2023-01-15T07:36:09;4.30;;;1.15;;
44578;SDS011;37422;51.402;0.016;2023-01-15T07:38:36;8.13;;;1.52;;
44578;SDS011;37422;51.402;0.016;2023-01-15T07:41:04;8.50;;;1.60;;
44578;SDS011;37422;51.402;0.016;2023-01-15T07:43:50;7.00;;;2.25;;
44578;SDS011;37422;51.402;0.016;2023-01-15T07:46:37;8.57;;;3.08;;
44578;SDS011;37422;51.402;0.016;2023-01-15T07:49:24;7.55;;;1.40;;
44578;SDS011;37422;51.402;0.016;2023-01-15T07:52:13;9.20;;;1.80;;
44578;SDS011;37422;51.402;0.016;2023-01-15T07:54:48;9.95;;;1.50;;
44578;SDS011;37422;51.402;0.016;2023-01-15T07:57:17;3.45;;;0.95;;
44578;SDS011;37422;51.402;0.016;2023-01-15T07:59:57;5.43;;;1.50;;
44578;SDS011;37422;51.402;0.016;2023-01-15T08:02:25;7.47;;;1.13;;
44578;SDS011;37422;51.402;0.016;2023-01-15T08:04:53;8.48;;;1.70;;
44578;SDS011;37422;51.402;0.016;2023-01-15T08:07:22;11.02;;;1.42;;
44578;SDS011;37422;51.402;0.016;2023-01-15T08:09:51;9.40;;;2.92;;
44578;SDS011;37422;51.402;0.016;2023-01-15T08:12:21;7.55;;;2.42;;
44578;SDS011;37422;51.402;0.016;2023-01-15T08:15:10;7.47;;;1.65;;
44578;SDS011;37422;51.402;0.016;2023-01-15T08:17:43;6.55;;;1.55;;
44578;SDS011;37422;51.402;0.016;2023-01-15T08:20:14;8.68;;;1.67;;
44578;SDS011;37422;51.402;0.016;2023-01-15T08:22:43;10.43;;;1.60;;
44578;SDS011;37422;51.402;0.016;2023-01-15T08:25:13;6.50;;;2.22;;
44578;SDS011;37422;51.402;0.016;2023-01-15T08:30:12;9.38;;;1.80;;
44578;SDS011;37422;51.402;0.016;2023-01-15T08:32:42;9.68;;;1.75;;
44578;SDS011;37422;51.402;0.016;2023-01-15T08:35:11;6.25;;;1.85;;
44578;SDS011;37422;51.402;0.016;2023-01-15T08:37:40;5.35;;;1.65;;
44578;SDS011;37422;51.402;0.016;2023-01-15T08:40:11;6.28;;;1.88;;
44578;SDS011;37422;51.402;0.016;2023-01-15T08:42:42;7.18;;;2.00;;
44578;SDS011;37422;51.402;0.016;2023-01-15T08:45:17;9.63;;;2.38;;
44578;SDS011;37422;51.402;0.016;2023-01-15T08:47:48;10.65;;;1.95;;
44578;SDS011;37422;51.402;0.016;2023-01-15T08:50:16;8.50;;;2.10;;
44578;SDS011;37422;51.402;0.016;2023-01-15T08:52:46;5.65;;;1.45;;
44578;SDS011;37422;51.402;0.016;2023-01-15T08:55:14;4.82;;;1.88;;
44578;SDS011;37422;51.402;0.016;2023-01-15T08:57:44;7.53;;;2.90;;
44578;SDS011;37422;51.402;0.016;2023-01-15T09:00:16;6.50;;;1.20;;
44578;SDS011;37422;51.402;0.016;2023-01-15T09:02:48;9.25;;;2.25;;
44578;SDS011;37422;51.402;0.016;2023-01-15T09:05:19;9.82;;;1.58;;
44578;SDS011;37422;51.402;0.016;2023-01-15T09:07:48;9.55;;;1.80;;
44578;SDS011;37422;51.402;0.016;2023-01-15T09:10:19;8.45;;;2.13;;
44578;SDS011;37422;51.402;0.016;2023-01-15T09:12:48;12.10;;;2.10;;
44578;SDS011;37422;51.402;0.016;2023-01-15T09:15:20;8.93;;;2.13;;
44578;SDS011;37422;51.402;0.016;2023-01-15T09:17:48;8.50;;;1.48;;
44578;SDS011;37422;51.402;0.016;2023-01-15T09:20:17;13.95;;;2.03;;
44578;SDS011;37422;51.402;0.016;2023-01-15T09:22:48;8.65;;;1.70;;
44578;SDS011;37422;51.402;0.016;2023-01-15T09:27:54;6.72;;;1.83;;
44578;SDS011;37422;51.402;0.016;2023-01-15T09:30:25;11.82;;;2.70;;
44578;SDS011;37422;51.402;0.016;2023-01-15T09:32:54;11.43;;;1.80;;
44578;SDS011;37422;51.402;0.016;2023-01-15T09:35:22;9.02;;;2.40;;
44578;SDS011;37422;51.402;0.016;2023-01-15T09:37:53;11.07;;;1.77;;
44578;SDS011;37422;51.402;0.016;2023-01-15T09:40:42;9.40;;;1.98;;
44578;SDS011;37422;51.402;0.016;2023-01-15T09:49:08;8.38;;;1.60;;
44578;SDS011;37422;51.402;0.016;2023-01-15T09:57:14;8.57;;;1.48;;
44578;SDS011;37422;51.402;0.016;2023-01-15T09:59:45;14.70;;;3.58;;
44578;SDS011;37422;51.402;0.016;2023-01-15T10:02:23;9.32;;;2.83;;
44578;SDS011;37422;51.402;0.016;2023-01-15T10:04:56;12.27;;;2.20;;
44578;SDS011;37422;51.402;0.016;2023-01-15T10:07:49;10.90;;;2.15;;
44578;SDS011;37422;51.402;0.016;2023-01-15T10:10:29;11.05;;;2.08;;
44578;SDS011;37422;51.402;0.016;2023-01-15T10:13:06;13.35;;;3.63;;
44578;SDS011;37422;51.402;0.016;2023-01-15T10:15:46;9.40;;;2.13;;
44578;SDS011;37422;51.402;0.016;2023-01-15T10:18:16;13.05;;;3.25;;
44578;SDS011;37422;51.402;0.016;2023-01-15T10:26:58;12.48;;;1.98;;
44578;SDS011;37422;51.402;0.016;2023-01-15T10:29:36;10.52;;;2.28;;
44578;SDS011;37422;51.402;0.016;2023-01-15T10:32:22;12.95;;;2.83;;
44578;SDS011;37422;51.402;0.016;2023-01-15T10:35:51;16.17;;;4.32;;
44578;SDS011;37422;51.402;0.016;2023-01-15T10:38:44;16.60;;;2.38;;
44578;SDS011;37422;51.402;0.016;2023-01-15T10:46:40;9.90;;;2.28;;
44578;SDS011;37422;51.402;0.016;2023-01-15T10:49:13;13.48;;;3.38;;
44578;SDS011;37422;51.402;0.016;2023-01-15T10:51:44;12.13;;;2.47;;
44578;SDS011;37422;51.402;0.016;2023-01-15T10:54:28;13.75;;;2.50;;
44578;SDS011;37422;51.402;0.016;2023-01-15T10:57:08;13.43;;;1.95;;
44578;SDS011;37422;51.402;0.016;2023-01-15T10:59:48;14.63;;;2.50;;
44578;SDS011;37422;51.402;0.016;2023-01-15T11:04:48;14.73;;;2.65;;
44578;SDS011;37422;51.402;0.016;2023-01-15T11:07:16;12.68;;;2.50;;
44578;SDS011;37422;51.402;0.016;2023-01-15T11:09:44;8.38;;;2.30;;
44578;SDS011;37422;51.402;0.016;2023-01-15T11:12:31;9.43;;;1.80;;
44578;SDS011;37422;51.402;0.016;2023-01-15T11:15:22;14.93;;;2.60;;
44578;SDS011;37422;51.402;0.016;2023-01-15T11:18:14;16.58;;;2.35;;
44578;SDS011;37422;51.402;0.016;2023-01-15T11:21:15;8.80;;;1.88;;
44578;SDS011;37422;51.402;0.016;2023-01-15T11:23:45;13.57;;;2.60;;
44578;SDS011;37422;51.402;0.016;2023-01-15T11:26:27;13.40;;;2.28;;
44578;SDS011;37422;51.402;0.016;2023-01-15T11:28:57;10.43;;;1.75;;
44578;SDS011;37422;51.402;0.016;2023-01-15T11:31:34;8.38;;;1.90;;
44578;SDS011;37422;51.402;0.016;2023-01-15T11:34:15;11.80;;;2.65;;
44578;SDS011;37422;51.402;0.016;2023-01-15T11:36:59;14.50;;;2.58;;
44578;SDS011;37422;51.402;0.016;2023-01-15T11:39:31;16.27;;;2.75;;
44578;SDS011;37422;51.402;0.016;2023-01-15T11:42:00;9.95;;;2.10;;
44578;SDS011;37422;51.402;0.016;2023-01-15T11:44:55;17.02;;;2.45;;
44578;SDS011;37422;51.402;0.016;2023-01-15T11:47:52;15.57;;;3.28;;
44578;SDS011;37422;51.402;0.016;2023-01-15T11:50:59;8.88;;;2.00;;
44578;SDS011;37422;51.402;0.016;2023-01-15T11:56:34;7.57;;;2.15;;
44578;SDS011;37422;51.402;0.016;2023-01-15T11:59:11;9.77;;;1.92;;
44578;SDS011;37422;51.402;0.016;2023-01-15T12:01:59;11.75;;;2.00;;
44578;SDS011;37422;51.402;0.016;2023-01-15T12:04:37;14.48;;;3.30;;
44578;SDS011;37422;51.402;0.016;2023-01-15T12:07:13;13.93;;;3.03;;
44578;SDS011;37422;51.402;0.016;2023-01-15T12:09:54;12.57;;;2.20;;
44578;SDS011;37422;51.402;0.016;2023-01-15T12:17:47;9.75;;;1.83;;
44578;SDS011;37422;51.402;0.016;2023-01-15T12:20:49;8.60;;;2.05;;
44578;SDS011;37422;51.402;0.016;2023-01-15T12:34:12;12.10;;;2.25;;
44578;SDS011;37422;51.402;0.016;2023-01-15T12:36:45;15.45;;;2.65;;
44578;SDS011;37422;51.402;0.016;2023-01-15T12:39:22;13.00;;;2.83;;
44578;SDS011;37422;51.402;0.016;2023-01-15T12:42:05;13.73;;;2.38;;
44578;SDS011;37422;51.402;0.016;2023-01-15T12:45:19;7.45;;;1.92;;
44578;SDS011;37422;51.402;0.016;2023-01-15T12:47:50;11.10;;;1.70;;
44578;SDS011;37422;51.402;0.016;2023-01-15T12:55:53;13.93;;;2.55;;
44578;SDS011;37422;51.402;0.016;2023-01-15T13:01:01;16.25;;;2.22;;
44578;SDS011;37422;51.402;0.016;2023-01-15T13:04:21;14.05;;;2.53;;
44578;SDS011;37422;51.402;0.016;2023-01-15T13:06:39;9.95;;;1.98;;
44578;SDS011;37422;51.402;0.016;2023-01-15T13:10:00;9.73;;;2.30;;
44578;SDS011;37422;51.402;0.016;2023-01-15T13:12:13;15.18;;;2.55;;
44578;SDS011;37422;51.402;0.016;2023-01-15T13:14:42;11.77;;;2.28;;
44578;SDS011;37422;51.402;0.016;2023-01-15T13:17:16;10.88;;;2.28;;
44578;SDS011;37422;51.402;0.016;2023-01-15T13:22:41;11.15;;;2.42;;
44578;SDS011;37422;51.402;0.016;2023-01-15T13:25:38;10.10;;;2.55;;
44578;SDS011;37422;51.402;0.016;2023-01-15T13:30:58;12.18;;;2.95;;
44578;SDS011;37422;51.402;0.016;2023-01-15T13:33:54;9.13;;;2.13;;
44578;SDS011;37422;51.402;0.016;2023-01-15T13:36:25;9.43;;;2.30;;
44578;SDS011;37422;51.402;0.016;2023-01-15T13:38:59;13.52;;;1.95;;
44578;SDS011;37422;51.402;0.016;2023-01-15T13:41:30;12.27;;;2.70;;
44578;SDS011;37422;51.402;0.016;2023-01-15T13:44:19;9.35;;;1.80;;
44578;SDS011;37422;51.402;0.016;2023-01-15T13:47:03;13.93;;;2.85;;
44578;SDS011;37422;51.402;0.016;2023-01-15T13:49:35;11.13;;;2.42;;
44578;SDS011;37422;51.402;0.016;2023-01-15T13:52:29;12.25;;;2.80;;
44578;SDS011;37422;51.402;0.016;2023-01-15T13:55:15;8.73;;;2.40;;
44578;SDS011;37422;51.402;0.016;2023-01-15T13:57:50;8.63;;;2.30;;
44578;SDS011;37422;51.402;0.016;2023-01-15T14:00:25;7.93;;;2.25;;
44578;SDS011;37422;51.402;0.016;2023-01-15T14:02:55;11.20;;;2.30;;
44578;SDS011;37422;51.402;0.016;2023-01-15T14:05:27;10.48;;;2.90;;
44578;SDS011;37422;51.402;0.016;2023-01-15T14:08:22;20.00;;;2.47;;
44578;SDS011;37422;51.402;0.016;2023-01-15T14:11:05;12.65;;;3.90;;
44578;SDS011;37422;51.402;0.016;2023-01-15T14:14:00;15.07;;;3.28;;
44578;SDS011;37422;51.402;0.016;2023-01-15T14:23:02;11.40;;;2.30;;
44578;SDS011;37422;51.402;0.016;2023-01-15T14:26:01;7.93;;;1.88;;
44578;SDS011;37422;51.402;0.016;2023-01-15T14:32:02;9.98;;;1.80;;
44578;SDS011;37422;51.402;0.016;2023-01-15T14:34:38;9.15;;;3.42;;
44578;SDS011;37422;51.402;0.016;2023-01-15T14:42:50;10.82;;;2.28;;
44578;SDS011;37422;51.402;0.016;2023-01-15T14:45:49;6.80;;;2.20;;
44578;SDS011;37422;51.402;0.016;2023-01-15T14:51:06;6.82;;;1.75;;
44578;SDS011;37422;51.402;0.016;2023-01-15T14:53:36;8.00;;;2.10;;
44578;SDS011;37422;51.402;0.016;2023-01-15T14:56:27;10.43;;;2.10;;
44578;SDS011;37422;51.402;0.016;2023-01-15T15:01:38;6.82;;;2.38;;
44578;SDS011;37422;51.402;0.016;2023-01-15T15:06:49;13.57;;;1.90;;
44578;SDS011;37422;51.402;0.016;2023-01-15T15:09:39;10.20;;;2.55;;
44578;SDS011;37422;51.402;0.016;2023-01-15T15:17:55;10.43;;;2.40;;
44578;SDS011;37422;51.402;0.016;2023-01-15T15:20:29;16.25;;;2.88;;
44578;SDS011;37422;51.402;0.016;2023-01-15T15:25:47;12.93;;;2.90;;
44578;SDS011;37422;51.402;0.016;2023-01-15T15:28:22;12.88;;;2.63;;
44578;SDS011;37422;51.402;0.016;2023-01-15T15:30:52;17.95;;;3.42;;
44578;SDS011;37422;51.402;0.016;2023-01-15T15:33:23;9.27;;;3.42;;
44578;SDS011;37422;51.402;0.016;2023-01-15T15:35:53;11.85;;;2.65;;
44578;SDS011;37422;51.402;0.016;2023-01-15T15:40:58;13.57;;;3.10;;
44578;SDS011;37422;51.402;0.016;2023-01-15T15:43:31;10.90;;;2.60;;
44578;SDS011;37422;51.402;0.016;2023-01-15T15:46:30;13.77;;;3.97;;
44578;SDS011;37422;51.402;0.016;2023-01-15T15:49:17;13.70;;;3.50;;
44578;SDS011;37422;51.402;0.016;2023-01-15T15:51:52;12.77;;;3.28;;
44578;SDS011;37422;51.402;0.016;2023-01-15T15:54:21;9.35;;;3.05;;
44578;SDS011;37422;51.402;0.016;2023-01-15T15:57:01;13.13;;;2.83;;
44578;SDS011;37422;51.402;0.016;2023-01-15T16:04:49;11.88;;;3.08;;
44578;SDS011;37422;51.402;0.016;2023-01-15T16:07:22;12.98;;;3.40;;
44578;SDS011;37422;51.402;0.016;2023-01-15T16:09:53;11.52;;;3.20;;
44578;SDS011;37422;51.402;0.016;2023-01-15T16:12:28;9.25;;;3.15;;
44578;SDS011;37422;51.402;0.016;2023-01-15T16:15:01;8.77;;;2.40;;
44578;SDS011;37422;51.402;0.016;2023-01-15T16:17:36;12.13;;;3.08;;
44578;SDS011;37422;51.402;0.016;2023-01-15T16:20:16;13.27;;;2.40;;
44578;SDS011;37422;51.402;0.016;2023-01-15T16:22:54;7.82;;;2.55;;
44578;SDS011;37422;51.402;0.016;2023-01-15T16:27:57;11.38;;;2.75;;
44578;SDS011;37422;51.402;0.016;2023-01-15T16:30:26;13.52;;;2.80;;
44578;SDS011;37422;51.402;0.016;2023-01-15T16:32:58;15.02;;;3.20;;
44578;SDS011;37422;51.402;0.016;2023-01-15T16:35:27;16.63;;;2.85;;
44578;SDS011;37422;51.402;0.016;2023-01-15T16:37:58;17.65;;;3.08;;
44578;SDS011;37422;51.402;0.016;2023-01-15T16:40:28;21.37;;;3.57;;
44578;SDS011;37422;51.402;0.016;2023-01-15T16:43:20;13.23;;;3.10;;
44578;SDS011;37422;51.402;0.016;2023-01-15T16:48:41;14.38;;;2.88;;
44578;SDS011;37422;51.402;0.016;2023-01-15T16:53:58;12.23;;;4.28;;
44578;SDS011;37422;51.402;0.016;2023-01-15T16:59:05;10.25;;;2.70;;
44578;SDS011;37422;51.402;0.016;2023-01-15T17:02:11;8.38;;;3.10;;
44578;SDS011;37422;51.402;0.016;2023-01-15T17:04:42;13.50;;;3.78;;
44578;SDS011;37422;51.402;0.016;2023-01-15T17:09:44;11.80;;;4.20;;
44578;SDS011;37422;51.402;0.016;2023-01-15T17:12:30;17.33;;;4.40;;
44578;SDS011;37422;51.402;0.016;2023-01-15T17:17:49;20.53;;;6.60;;
44578;SDS011;37422;51.402;0.016;2023-01-15T17:20:19;15.95;;;4.90;;
44578;SDS011;37422;51.402;0.016;2023-01-15T17:22:50;23.33;;;8.02;;
44578;SDS011;37422;51.402;0.016;2023-01-15T17:25:22;19.80;;;6.13;;
44578;SDS011;37422;51.402;0.016;2023-01-15T17:27:57;22.45;;;6.90;;
44578;SDS011;37422;51.402;0.016;2023-01-15T17:30:26;18.17;;;4.85;;
44578;SDS011;37422;51.402;0.016;2023-01-15T17:33:01;16.05;;;4.72;;
44578;SDS011;37422;51.402;0.016;2023-01-15T17:35:36;24.02;;;5.03;;
44578;SDS011;37422;51.402;0.016;2023-01-15T17:38:04;20.55;;;6.22;;
44578;SDS011;37422;51.402;0.016;2023-01-15T17:40:38;14.27;;;4.38;;
44578;SDS011;37422;51.402;0.016;2023-01-15T17:43:06;16.73;;;5.25;;
44578;SDS011;37422;51.402;0.016;2023-01-15T17:45:40;17.92;;;4.90;;
44578;SDS011;37422;51.402;0.016;2023-01-15T17:48:08;18.02;;;3.90;;
44578;SDS011;37422;51.402;0.016;2023-01-15T17:50:36;16.67;;;3.95;;
44578;SDS011;37422;51.402;0.016;2023-01-15T17:53:04;16.23;;;4.35;;
44578;SDS011;37422;51.402;0.016;2023-01-15T17:55:32;20.98;;;4.80;;
44578;SDS011;37422;51.402;0.016;2023-01-15T17:58:18;13.70;;;5.00;;
44578;SDS011;37422;51.402;0.016;2023-01-15T18:01:13;10.18;;;3.78;;
44578;SDS011;37422;51.402;0.016;2023-01-15T18:04:15;16.83;;;4.57;;
44578;SDS011;37422;51.402;0.016;2023-01-15T18:07:05;8.02;;;3.28;;
44578;SDS011;37422;51.402;0.016;2023-01-15T18:09:33;15.93;;;3.60;;